createdAt,value
2017-12-06T00:01:54.277Z,22.85
2017-12-06T00:04:20.640Z,15.75
2017-12-06T00:06:47.043Z,22.42
2017-12-06T00:09:13.412Z,24.12
2017-12-06T00:11:39.780Z,19.52
2017-12-06T00:14:12.367Z,18.60
2017-12-06T00:16:38.788Z,23.45
2017-12-06T00:19:05.168Z,24.83
2017-12-06T00:21:31.535Z,19.98
2017-12-06T00:23:58.691Z,17.62
2017-12-06T00:26:25.472Z,20.90
2017-12-06T00:28:52.652Z,18.62
2017-12-06T00:31:19.045Z,18.60
2017-12-06T00:33:45.440Z,19.90
2017-12-06T00:36:11.816Z,19.85
2017-12-06T00:38:39.246Z,18.05
2017-12-06T00:41:05.648Z,16.20
2017-12-06T00:43:32.051Z,14.82
2017-12-06T00:45:58.443Z,17.15
2017-12-06T00:48:26.338Z,19.92
2017-12-06T00:50:53.507Z,21.02
2017-12-06T00:53:19.907Z,18.40
2017-12-06T00:55:46.308Z,16.75
2017-12-06T00:58:12.736Z,17.30
2017-12-06T01:00:45.213Z,17.12
2017-12-06T01:03:12.392Z,15.50
2017-12-06T01:05:38.832Z,20.48
2017-12-06T01:08:05.942Z,14.65
2017-12-06T01:10:32.355Z,16.85
2017-12-06T01:12:58.776Z,17.35
2017-12-06T01:15:25.916Z,19.62
2017-12-06T01:17:52.286Z,17.27
2017-12-06T01:20:18.700Z,14.32
2017-12-06T01:22:45.120Z,22.85
2017-12-06T01:25:11.513Z,23.48
2017-12-06T01:27:37.920Z,25.55
2017-12-06T01:30:04.340Z,20.62
2017-12-06T01:32:30.750Z,20.58
2017-12-06T01:34:57.164Z,17.48
2017-12-06T01:37:23.550Z,22.35
2017-12-06T01:39:50.023Z,18.50
2017-12-06T01:42:16.504Z,18.60
2017-12-06T01:44:42.932Z,20.37
2017-12-06T01:47:09.380Z,22.50
2017-12-06T01:49:35.791Z,22.30
2017-12-06T01:52:02.135Z,21.37
2017-12-06T01:54:28.587Z,18.58
2017-12-06T01:56:55.043Z,22.55
2017-12-06T01:59:21.532Z,23.77
2017-12-06T02:01:47.908Z,22.87
2017-12-06T02:04:14.376Z,21.55
2017-12-06T02:06:40.780Z,19.10
2017-12-06T02:09:07.899Z,23.23
2017-12-06T02:11:34.342Z,18.90
2017-12-06T02:14:00.764Z,16.25
2017-12-06T02:16:27.216Z,24.55
2017-12-06T02:18:53.619Z,22.60
2017-12-06T02:21:20.776Z,24.35
2017-12-06T02:23:47.904Z,22.83
2017-12-06T02:26:15.109Z,17.25
2017-12-06T02:28:41.522Z,21.17
2017-12-06T02:31:07.989Z,18.25
2017-12-06T02:33:34.436Z,23.12
2017-12-06T02:36:01.597Z,32.78
2017-12-06T02:38:28.748Z,22.55
2017-12-06T02:41:08.064Z,26.48
2017-12-06T02:43:46.716Z,23.15
2017-12-06T02:46:13.901Z,22.30
2017-12-06T02:48:41.085Z,23.33
2017-12-06T02:51:07.512Z,22.92
2017-12-06T02:53:33.961Z,22.30
2017-12-06T02:56:01.217Z,23.08
2017-12-06T02:58:29.463Z,20.90
2017-12-06T03:00:55.875Z,21.02
2017-12-06T03:03:22.316Z,18.23
2017-12-06T03:05:48.716Z,21.23
2017-12-06T03:08:15.916Z,22.83
2017-12-06T03:10:42.367Z,23.62
2017-12-06T03:13:08.819Z,19.15
2017-12-06T03:15:35.259Z,22.25
2017-12-06T03:18:01.660Z,24.98
2017-12-06T03:20:28.024Z,25.55
2017-12-06T03:22:54.432Z,21.67
2017-12-06T03:25:20.803Z,19.92
2017-12-06T03:27:47.956Z,22.37
2017-12-06T03:30:15.089Z,25.37
2017-12-06T03:32:41.532Z,27.52
2017-12-06T03:35:07.941Z,27.77
2017-12-06T03:37:34.408Z,21.15
2017-12-06T03:40:00.863Z,24.45
2017-12-06T03:42:27.231Z,19.58
2017-12-06T03:44:55.524Z,22.30
2017-12-06T03:47:21.952Z,22.58
2017-12-06T03:49:48.348Z,23.42
2017-12-06T03:52:14.759Z,25.15
2017-12-06T03:54:41.120Z,23.27
2017-12-06T03:57:08.288Z,22.70
2017-12-06T03:59:34.772Z,22.35
2017-12-06T04:02:01.131Z,29.70
2017-12-06T04:04:27.528Z,26.65
2017-12-06T04:06:53.931Z,23.67
2017-12-06T04:09:21.385Z,21.27
2017-12-06T04:11:47.800Z,21.58
2017-12-06T04:14:14.240Z,25.70
2017-12-06T04:16:40.708Z,26.10
2017-12-06T04:19:07.072Z,25.80
2017-12-06T04:21:35.321Z,20.90
2017-12-06T04:24:01.712Z,21.05
2017-12-06T04:26:28.080Z,19.23
2017-12-06T04:28:54.496Z,25.37
2017-12-06T04:31:21.659Z,25.45
2017-12-06T04:33:48.040Z,19.05
2017-12-06T04:36:14.430Z,20.15
2017-12-06T04:38:40.884Z,22.58
2017-12-06T04:41:07.304Z,21.00
2017-12-06T04:43:33.768Z,24.65
2017-12-06T04:46:00.151Z,21.62
2017-12-06T04:48:27.313Z,22.30
2017-12-06T04:50:53.711Z,23.15
2017-12-06T04:53:20.116Z,28.33
2017-12-06T04:55:46.472Z,30.10
2017-12-06T04:58:12.892Z,26.17
2017-12-06T05:00:39.991Z,22.00
2017-12-06T05:03:06.386Z,26.08
2017-12-06T05:05:32.809Z,31.70
2017-12-06T05:07:59.199Z,23.40
2017-12-06T05:10:25.567Z,25.30
2017-12-06T05:12:52.032Z,20.20
2017-12-06T05:15:18.511Z,30.27
2017-12-06T05:17:45.716Z,25.08
2017-12-06T05:20:12.156Z,26.00
2017-12-06T05:22:38.600Z,25.45
2017-12-06T05:25:04.984Z,21.25
2017-12-06T05:27:32.096Z,22.17
2017-12-06T05:29:58.520Z,21.12
2017-12-06T05:32:25.624Z,25.80
2017-12-06T05:34:52.064Z,18.55
2017-12-06T05:37:18.419Z,22.60
2017-12-06T05:39:44.807Z,27.95
2017-12-06T05:42:11.208Z,23.02
2017-12-06T05:44:37.598Z,22.17
2017-12-06T05:47:04.732Z,24.60
2017-12-06T05:49:31.896Z,22.55
2017-12-06T05:51:58.292Z,30.77
2017-12-06T05:54:24.663Z,24.33
2017-12-06T05:56:51.083Z,23.23
2017-12-06T05:59:17.516Z,23.08
2017-12-06T06:01:43.923Z,19.40
2017-12-06T06:04:11.044Z,23.80
2017-12-06T06:06:37.456Z,21.45
2017-12-06T06:09:03.914Z,26.98
2017-12-06T06:11:30.311Z,25.50
2017-12-06T06:13:56.684Z,22.30
2017-12-06T06:16:23.268Z,19.77
2017-12-06T06:18:49.672Z,23.83
2017-12-06T06:21:16.844Z,25.15
2017-12-06T06:23:43.272Z,17.62
2017-12-06T06:26:09.748Z,23.05
2017-12-06T06:28:36.132Z,20.62
2017-12-06T06:31:02.561Z,18.55
2017-12-06T06:33:28.971Z,18.70
2017-12-06T06:35:55.360Z,21.00
2017-12-06T06:38:21.744Z,20.25
2017-12-06T06:40:48.212Z,25.23
2017-12-06T06:43:14.555Z,18.27
2017-12-06T06:45:40.944Z,19.67
2017-12-06T06:48:07.393Z,20.58
2017-12-06T06:50:34.564Z,20.05
2017-12-06T06:53:00.968Z,18.08
2017-12-06T06:55:28.452Z,20.48
2017-12-06T06:57:54.836Z,22.08
2017-12-06T07:00:21.963Z,17.98
2017-12-06T07:02:49.184Z,26.48
2017-12-06T07:05:15.573Z,16.20
2017-12-06T07:07:41.964Z,21.92
2017-12-06T07:10:08.390Z,21.58
2017-12-06T07:12:34.781Z,18.42
2017-12-06T07:15:01.209Z,21.08
2017-12-06T07:17:27.624Z,18.12
2017-12-06T07:19:54.756Z,18.98
2017-12-06T07:22:21.296Z,21.50
2017-12-06T07:24:47.735Z,18.58
2017-12-06T07:27:14.121Z,17.58
2017-12-06T07:29:41.305Z,23.75
2017-12-06T07:32:07.728Z,20.77
2017-12-06T07:34:34.144Z,20.48
2017-12-06T07:37:00.582Z,22.85
2017-12-06T07:39:27.332Z,16.75
2017-12-06T07:41:53.772Z,18.60
2017-12-06T07:44:20.196Z,20.15
2017-12-06T07:46:46.600Z,18.52
2017-12-06T07:49:13.728Z,24.12
2017-12-06T07:51:40.112Z,17.45
2017-12-06T07:54:06.545Z,16.42
2017-12-06T07:56:33.687Z,17.80
2017-12-06T07:59:00.072Z,17.30
2017-12-06T08:01:26.516Z,22.45
2017-12-06T08:03:52.879Z,13.85
2017-12-06T08:06:19.292Z,16.20
2017-12-06T08:08:45.680Z,13.15
2017-12-06T08:11:12.128Z,19.17
2017-12-06T08:13:38.559Z,15.65
2017-12-06T08:16:05.000Z,14.93
2017-12-06T08:18:31.432Z,16.50
2017-12-06T08:20:57.840Z,13.32
2017-12-06T08:23:24.963Z,14.85
2017-12-06T08:25:51.364Z,11.10
2017-12-06T08:28:18.525Z,12.27
2017-12-06T08:30:45.012Z,16.62
2017-12-06T08:33:11.415Z,16.55
2017-12-06T08:35:38.584Z,14.55
2017-12-06T08:38:05.064Z,15.20
2017-12-06T08:40:31.468Z,16.15
2017-12-06T08:42:57.896Z,12.70
2017-12-06T08:45:25.056Z,12.93
2017-12-06T08:47:51.489Z,10.88
2017-12-06T08:50:17.928Z,11.85
2017-12-06T08:52:45.364Z,18.98
2017-12-06T08:55:11.837Z,14.30
2017-12-06T08:57:38.220Z,16.40
2017-12-06T09:00:04.669Z,9.88
2017-12-06T09:02:31.216Z,18.95
2017-12-06T09:04:57.633Z,13.27
2017-12-06T09:07:24.852Z,15.82
2017-12-06T09:09:51.240Z,10.52
2017-12-06T09:12:17.677Z,17.02
2017-12-06T09:14:44.832Z,11.20
2017-12-06T09:17:11.292Z,13.70
2017-12-06T09:19:37.683Z,18.45
2017-12-06T09:22:04.090Z,9.98
2017-12-06T09:24:31.228Z,8.57
2017-12-06T09:26:57.679Z,12.05
2017-12-06T09:29:24.896Z,12.93
2017-12-06T09:31:51.492Z,8.70
2017-12-06T09:34:17.886Z,11.75
2017-12-06T09:36:44.301Z,9.95
2017-12-06T09:39:10.721Z,10.40
2017-12-06T09:41:38.172Z,11.15
2017-12-06T09:44:04.656Z,9.60
2017-12-06T09:46:31.817Z,7.95
2017-12-06T09:49:00.053Z,11.60
2017-12-06T09:51:26.484Z,11.93
2017-12-06T09:53:52.871Z,8.82
2017-12-06T09:56:19.224Z,8.00
2017-12-06T09:58:46.383Z,8.43
2017-12-06T10:01:12.772Z,11.55
2017-12-06T10:03:39.144Z,13.85
2017-12-06T10:06:05.513Z,15.05
2017-12-06T10:08:31.920Z,8.05
2017-12-06T10:10:58.275Z,12.82
2017-12-06T10:13:24.727Z,10.10
2017-12-06T10:15:51.125Z,8.25
2017-12-06T10:18:17.528Z,14.87
2017-12-06T10:20:44.748Z,11.20
2017-12-06T10:23:11.131Z,8.90
2017-12-06T10:25:37.596Z,18.33
2017-12-06T10:28:04.751Z,11.98
2017-12-06T10:30:31.140Z,15.40
2017-12-06T10:32:57.564Z,17.15
2017-12-06T10:35:24.008Z,13.38
2017-12-06T10:37:51.148Z,14.43
2017-12-06T10:40:17.593Z,12.63
2017-12-06T10:42:45.114Z,14.65
2017-12-06T10:45:11.740Z,14.43
2017-12-06T10:47:38.840Z,15.73
2017-12-06T10:50:05.261Z,13.05
2017-12-06T10:52:31.708Z,17.25
2017-12-06T10:54:58.096Z,14.95
2017-12-06T10:57:25.234Z,15.20
2017-12-06T10:59:51.647Z,15.02
2017-12-06T11:02:18.032Z,14.25
2017-12-06T11:04:44.482Z,18.27
2017-12-06T11:07:10.931Z,14.38
2017-12-06T11:09:37.344Z,16.58
2017-12-06T11:12:03.752Z,17.00
2017-12-06T11:14:30.884Z,14.70
2017-12-06T11:16:57.323Z,14.13
2017-12-06T11:19:23.731Z,17.65
2017-12-06T11:21:50.119Z,19.62
2017-12-06T11:24:16.492Z,13.43
2017-12-06T11:26:42.952Z,14.25
2017-12-06T11:29:09.355Z,16.37
2017-12-06T11:31:35.754Z,19.73
2017-12-06T11:34:02.224Z,14.52
2017-12-06T11:36:28.732Z,16.60
2017-12-06T11:38:55.126Z,16.30
2017-12-06T11:41:22.296Z,18.73
2017-12-06T11:43:48.762Z,14.52
2017-12-06T11:46:15.901Z,18.12
2017-12-06T11:48:43.044Z,17.83
2017-12-06T11:51:09.452Z,15.57
2017-12-06T11:53:35.844Z,17.45
2017-12-06T11:56:03.038Z,18.52
2017-12-06T11:58:30.200Z,15.75
2017-12-06T12:00:57.365Z,17.45
2017-12-06T12:03:23.819Z,17.35
2017-12-06T12:05:50.232Z,16.60
2017-12-06T12:08:16.703Z,22.55
2017-12-06T12:10:43.148Z,16.05
2017-12-06T12:13:10.276Z,17.70
2017-12-06T12:15:36.743Z,16.90
2017-12-06T12:18:03.201Z,13.85
2017-12-06T12:20:29.601Z,17.05
2017-12-06T12:22:56.012Z,14.13
2017-12-06T12:25:22.453Z,19.60
2017-12-06T12:27:48.867Z,21.45
2017-12-06T12:30:16.028Z,14.50
2017-12-06T12:32:42.412Z,17.20
2017-12-06T12:35:08.788Z,17.65
2017-12-06T12:37:35.224Z,15.90
2017-12-06T12:40:02.397Z,11.07
2017-12-06T12:42:45.600Z,13.02
2017-12-06T12:45:12.273Z,14.43
2017-12-06T12:47:39.443Z,12.85
2017-12-06T12:50:05.887Z,19.65
2017-12-06T12:52:33.081Z,16.48
2017-12-06T12:55:00.252Z,17.90
2017-12-06T12:57:26.688Z,11.85
2017-12-06T12:59:53.115Z,14.90
2017-12-06T13:02:19.584Z,11.80
2017-12-06T13:04:46.062Z,14.45
2017-12-06T13:07:12.506Z,12.02
2017-12-06T13:09:38.924Z,14.00
2017-12-06T13:12:06.076Z,13.30
2017-12-06T13:14:32.508Z,13.50
2017-12-06T13:16:58.941Z,22.92
2017-12-06T13:19:25.360Z,13.55
2017-12-06T13:21:52.617Z,12.45
2017-12-06T13:24:19.027Z,11.77
2017-12-06T13:26:45.484Z,9.50
2017-12-06T13:29:11.912Z,13.10
2017-12-06T13:31:39.105Z,12.10
2017-12-06T13:34:05.575Z,10.82
2017-12-06T13:36:32.917Z,11.43
2017-12-06T13:39:00.307Z,15.35
2017-12-06T13:41:26.652Z,18.77
2017-12-06T13:43:53.101Z,10.93
2017-12-06T13:46:20.509Z,17.12
2017-12-06T13:48:47.642Z,11.27
2017-12-06T13:51:14.856Z,11.20
2017-12-06T13:53:41.255Z,12.80
2017-12-06T13:56:07.702Z,14.70
2017-12-06T13:58:34.930Z,13.60
2017-12-06T14:01:01.371Z,12.32
2017-12-06T14:03:27.820Z,13.23
2017-12-06T14:05:54.239Z,13.90
2017-12-06T14:08:20.722Z,11.50
2017-12-06T14:10:47.080Z,11.65
2017-12-06T14:13:13.553Z,11.82
2017-12-06T14:15:40.691Z,13.90
2017-12-06T14:18:07.128Z,18.58
2017-12-06T14:20:34.295Z,16.98
2017-12-06T14:23:00.696Z,11.02
2017-12-06T14:25:27.140Z,11.65
2017-12-06T14:27:53.640Z,13.55
2017-12-06T14:30:20.040Z,11.20
2017-12-06T14:32:46.464Z,15.05
2017-12-06T14:35:12.934Z,13.15
2017-12-06T14:37:39.372Z,10.02
2017-12-06T14:40:05.844Z,12.55
2017-12-06T14:42:32.304Z,18.02
2017-12-06T14:44:58.772Z,12.40
2017-12-06T14:47:25.976Z,12.37
2017-12-06T14:49:52.392Z,12.30
2017-12-06T14:52:18.976Z,11.70
2017-12-06T14:54:45.392Z,15.13
2017-12-06T14:57:11.856Z,22.20
2017-12-06T14:59:38.236Z,14.63
2017-12-06T15:02:04.624Z,15.82
2017-12-06T15:04:31.076Z,11.50
2017-12-06T15:06:57.504Z,10.18
2017-12-06T15:09:23.954Z,17.17
2017-12-06T15:11:50.339Z,15.07
2017-12-06T15:14:16.720Z,18.70
2017-12-06T15:16:43.872Z,28.35
2017-12-06T15:19:11.050Z,11.85
2017-12-06T15:21:38.231Z,15.40
2017-12-06T15:24:04.664Z,18.67
2017-12-06T15:26:31.104Z,13.57
2017-12-06T15:28:58.291Z,15.80
2017-12-06T15:31:24.740Z,18.00
2017-12-06T15:33:51.180Z,15.80
2017-12-06T15:36:17.652Z,16.67
2017-12-06T15:38:44.117Z,17.52
2017-12-06T15:41:11.376Z,20.00
2017-12-06T15:43:37.788Z,15.00
2017-12-06T15:46:04.176Z,16.05
2017-12-06T15:48:31.363Z,26.05
2017-12-06T15:50:58.533Z,17.77
2017-12-06T15:53:25.024Z,19.35
2017-12-06T15:55:51.539Z,20.10
2017-12-06T15:58:18.947Z,17.45
2017-12-06T16:00:45.412Z,17.77
2017-12-06T16:03:12.568Z,19.20
2017-12-06T16:05:39.034Z,18.77
2017-12-06T16:08:06.197Z,15.30
2017-12-06T16:10:32.684Z,16.37
2017-12-06T16:13:00.068Z,15.70
2017-12-06T16:15:26.471Z,18.55
2017-12-06T16:17:52.933Z,19.48
2017-12-06T16:20:19.312Z,21.33
2017-12-06T16:22:45.712Z,16.50
2017-12-06T16:25:12.184Z,19.77
2017-12-06T16:27:38.626Z,20.95
2017-12-06T16:30:05.075Z,18.15
2017-12-06T16:32:31.573Z,17.45
2017-12-06T16:35:11.065Z,14.75
2017-12-06T16:37:37.500Z,18.73
2017-12-06T16:40:03.912Z,16.45
2017-12-06T16:42:31.136Z,18.55
2017-12-06T16:44:57.536Z,18.92
2017-12-06T16:47:23.927Z,18.70
2017-12-06T16:49:50.357Z,16.33
2017-12-06T16:52:16.772Z,16.05
2017-12-06T16:54:43.208Z,18.70
2017-12-06T16:57:09.648Z,19.33
2017-12-06T16:59:36.116Z,18.20
2017-12-06T17:02:02.536Z,19.83
2017-12-06T17:04:30.796Z,18.25
2017-12-06T17:06:57.928Z,23.10
2017-12-06T17:09:24.343Z,21.65
2017-12-06T17:11:50.767Z,21.55
2017-12-06T17:14:17.219Z,24.20
2017-12-06T17:16:43.657Z,25.00
2017-12-06T17:19:10.820Z,21.70
2017-12-06T17:21:37.272Z,15.48
2017-12-06T17:24:03.652Z,20.50
2017-12-06T17:26:30.059Z,19.55
2017-12-06T17:31:57.565Z,18.23
2017-12-06T17:34:23.915Z,17.95
2017-12-06T17:36:50.949Z,18.73
2017-12-06T17:39:17.271Z,16.35
2017-12-06T17:41:43.623Z,21.73
2017-12-06T17:44:09.907Z,16.62
2017-12-06T17:46:36.207Z,19.67
2017-12-06T17:49:02.570Z,22.75
2017-12-06T17:51:28.891Z,23.20
2017-12-06T17:53:55.199Z,19.45
2017-12-06T17:56:21.515Z,24.05
2017-12-06T17:58:48.595Z,17.02
2017-12-06T18:01:14.919Z,22.73
2017-12-06T18:03:41.426Z,22.50
2017-12-06T18:06:07.851Z,23.85
2017-12-06T18:08:34.207Z,27.75
2017-12-06T18:11:00.562Z,22.62
2017-12-06T18:13:26.862Z,25.08
2017-12-06T18:15:53.184Z,21.23
2017-12-06T18:18:19.511Z,18.85
2017-12-06T18:20:46.638Z,22.17
2017-12-06T18:23:13.679Z,20.77
2017-12-06T18:25:40.023Z,24.95
2017-12-06T18:28:06.343Z,20.15
2017-12-06T18:30:32.730Z,24.17
2017-12-06T18:32:59.076Z,23.67
2017-12-06T18:35:25.387Z,21.15
2017-12-06T18:37:51.719Z,27.98
2017-12-06T18:40:18.035Z,23.95
2017-12-06T18:42:44.327Z,26.90
2017-12-06T18:45:10.670Z,20.58
2017-12-06T18:47:37.007Z,18.98
2017-12-06T18:50:03.311Z,23.00
2017-12-06T18:52:29.612Z,20.15
2017-12-06T18:54:55.911Z,21.08
2017-12-06T18:57:22.219Z,23.42
2017-12-06T18:59:49.292Z,24.98
2017-12-06T19:02:15.624Z,28.55
2017-12-06T19:04:42.668Z,31.62
2017-12-06T19:07:08.955Z,19.77
2017-12-06T19:09:35.287Z,23.98
2017-12-06T19:12:01.575Z,20.48
2017-12-06T19:14:27.875Z,21.75
2017-12-06T19:16:54.174Z,25.00
2017-12-06T19:19:20.491Z,20.37
2017-12-06T19:21:46.791Z,23.48
2017-12-06T19:24:13.087Z,24.40
2017-12-06T19:26:39.367Z,24.58
2017-12-06T19:29:06.404Z,18.50
2017-12-06T19:31:33.150Z,21.48
2017-12-06T19:33:59.428Z,20.55
2017-12-06T19:36:25.724Z,20.45
2017-12-06T19:38:52.183Z,20.55
2017-12-06T19:41:18.490Z,23.12
2017-12-06T19:43:44.800Z,23.98
2017-12-06T19:46:11.103Z,19.42
2017-12-06T19:48:37.375Z,24.67
2017-12-06T19:51:03.667Z,19.48
2017-12-06T19:53:29.949Z,21.98
2017-12-06T19:55:56.986Z,24.52
2017-12-06T19:58:23.259Z,29.15
2017-12-06T20:00:49.575Z,28.77
2017-12-06T20:03:16.640Z,31.37
2017-12-06T20:05:42.919Z,35.97
2017-12-06T20:08:09.243Z,43.75
2017-12-06T20:10:35.539Z,48.00
2017-12-06T20:13:01.824Z,49.40
2017-12-06T20:15:28.175Z,57.40
2017-12-06T20:17:54.455Z,57.60
2017-12-06T20:20:20.791Z,53.47
2017-12-06T20:22:47.115Z,50.78
2017-12-06T20:25:13.431Z,52.13
2017-12-06T20:27:39.707Z,34.97
2017-12-06T20:30:06.026Z,42.13
2017-12-06T20:32:32.286Z,37.88
2017-12-06T20:34:58.555Z,43.30
2017-12-06T20:37:24.939Z,32.40
2017-12-06T20:39:51.959Z,34.97
2017-12-06T20:42:18.239Z,39.28
2017-12-06T20:44:44.543Z,46.30
2017-12-06T20:47:10.819Z,42.08
2017-12-06T20:49:37.859Z,33.05
2017-12-06T20:52:04.895Z,32.85
2017-12-06T20:54:31.223Z,27.80
2017-12-06T20:56:57.515Z,37.13
2017-12-06T20:59:23.831Z,32.70
2017-12-06T21:01:50.135Z,26.10
2017-12-06T21:04:16.431Z,29.05
2017-12-06T21:06:42.754Z,25.42
2017-12-06T21:09:09.050Z,26.80
2017-12-06T21:11:35.348Z,23.73
2017-12-06T21:14:01.671Z,24.20
2017-12-06T21:16:28.954Z,23.17
2017-12-06T21:18:55.246Z,24.63
2017-12-06T21:21:21.610Z,24.77
2017-12-06T21:23:47.920Z,22.20
2017-12-06T21:26:14.238Z,20.85
2017-12-06T21:28:40.532Z,20.83
2017-12-06T21:31:06.831Z,21.98
2017-12-06T21:33:33.174Z,22.80
2017-12-06T21:35:59.490Z,26.73
2017-12-06T21:38:25.799Z,26.62
2017-12-06T21:40:52.073Z,24.52
2017-12-06T21:43:19.134Z,27.35
2017-12-06T21:45:45.447Z,25.88
2017-12-06T21:48:11.807Z,24.33
2017-12-06T21:50:38.996Z,29.27
2017-12-06T21:53:05.400Z,26.83
2017-12-06T21:55:31.800Z,32.20
2017-12-06T21:57:58.240Z,28.87
2017-12-06T22:00:24.672Z,35.00
2017-12-06T22:02:51.792Z,37.35
2017-12-06T22:05:18.273Z,36.83
2017-12-06T22:07:44.691Z,32.75
2017-12-06T22:10:11.102Z,36.42
2017-12-06T22:12:37.508Z,31.67
2017-12-06T22:15:04.648Z,30.70
2017-12-06T22:17:31.092Z,19.05
2017-12-06T22:19:58.208Z,16.17
2017-12-06T22:22:24.640Z,21.60
2017-12-06T22:24:51.032Z,17.87
2017-12-06T22:27:18.221Z,12.32
2017-12-06T22:29:44.652Z,17.35
2017-12-06T22:32:12.968Z,15.93
2017-12-06T22:34:39.440Z,16.67
2017-12-06T22:37:05.884Z,18.70
2017-12-06T22:39:32.292Z,19.35
2017-12-06T22:41:58.676Z,17.05
2017-12-06T22:44:25.047Z,17.98
2017-12-06T22:46:51.484Z,14.95
2017-12-06T22:49:18.676Z,20.30
2017-12-06T22:51:45.906Z,21.00
2017-12-06T22:54:12.355Z,19.30
2017-12-06T22:56:38.796Z,14.60
2017-12-06T22:59:05.192Z,15.65
2017-12-06T23:01:31.588Z,14.90
2017-12-06T23:03:58.028Z,16.60
2017-12-06T23:06:24.520Z,16.05
2017-12-06T23:08:51.635Z,19.08
2017-12-06T23:11:18.091Z,14.60
2017-12-06T23:13:45.292Z,17.20
2017-12-06T23:16:11.696Z,17.45
2017-12-06T23:18:38.900Z,20.48
2017-12-06T23:21:06.060Z,21.35
2017-12-06T23:23:32.443Z,21.33
2017-12-06T23:25:58.864Z,25.75
2017-12-06T23:28:25.308Z,14.40
2017-12-06T23:30:51.753Z,12.73
2017-12-06T23:33:18.228Z,13.32
2017-12-06T23:35:44.624Z,9.88
2017-12-06T23:38:11.824Z,10.82
2017-12-06T23:40:38.275Z,9.70
2017-12-06T23:43:04.666Z,12.48
2017-12-06T23:45:31.788Z,9.50
2017-12-06T23:47:58.227Z,10.60
2017-12-06T23:50:24.611Z,9.68
2017-12-06T23:52:51.785Z,10.35
2017-12-06T23:55:18.976Z,7.57
2017-12-06T23:57:45.336Z,9.07
